Time;durP1;ratioP1;P1;durP2;ratioP2;P2;SDS_P1;SDS_P2;PMS_P1;PMS_P2;Temp;Humidity;BMP_temperature;BMP_pressure;BME280_temperature;BME280_humidity;BME280_pressure;Samples;Min_cycle;Max_cycle;Signal;HPM_P1;HPM_P2
2022/04/07 00:01:41;;;;;;;6.68;2.80;;;;;;;;;;5064350;28;20052;-63
2022/04/07 00:04:08;;;;;;;10.77;3.47;;;;;;;;;;5064552;28;20059;-63
2022/04/07 00:06:34;;;;;;;8.65;3.22;;;;;;;;;;5065449;28;20449;-64
2022/04/07 00:09:02;;;;;;;6.40;2.92;;;;;;;;;;5064556;28;20048;-63
2022/04/07 00:11:29;;;;;;;7.28;2.95;;;;;;;;;;5064297;28;20052;-63
2022/04/07 00:13:55;;;;;;;8.40;3.35;;;;;;;;;;5047259;28;20466;-62
2022/04/07 00:16:21;;;;;;;10.77;3.13;;;;;;;;;;5064483;28;20067;-62
2022/04/07 00:18:47;;;;;;;8.13;3.05;;;;;;;;;;5065804;28;20040;-61
2022/04/07 00:21:24;;;;;;;11.25;3.38;;;;;;;;;;5067569;28;20520;-61
2022/04/07 00:23:51;;;;;;;5.95;2.50;;;;;;;;;;5069094;28;20450;-62
2022/04/07 00:26:17;;;;;;;8.55;3.00;;;;;;;;;;5068199;28;20421;-61
2022/04/07 00:28:43;;;;;;;10.27;3.22;;;;;;;;;;5067710;28;20047;-62
2022/04/07 00:31:11;;;;;;;9.98;2.30;;;;;;;;;;5068530;28;20041;-62
2022/04/07 00:33:37;;;;;;;8.98;2.53;;;;;;;;;;5067266;28;20090;-62
2022/04/07 00:36:05;;;;;;;8.85;2.60;;;;;;;;;;5051217;28;20383;-62
2022/04/07 00:38:31;;;;;;;9.55;3.00;;;;;;;;;;5068324;28;20048;-63
2022/04/07 00:40:57;;;;;;;9.75;2.58;;;;;;;;;;5067818;28;20165;-62
2022/04/07 00:43:29;;;;;;;10.88;2.70;;;;;;;;;;5067144;28;20074;-63
2022/04/07 00:45:57;;;;;;;8.05;2.20;;;;;;;;;;5068360;28;20037;-63
2022/04/07 00:48:23;;;;;;;7.28;1.58;;;;;;;;;;5069119;28;20410;-63
2022/04/07 00:50:49;;;;;;;6.60;1.85;;;;;;;;;;5067748;28;20454;-62
2022/04/07 00:53:15;;;;;;;10.52;1.52;;;;;;;;;;5069205;28;20037;-62
2022/04/07 00:55:41;;;;;;;10.50;1.67;;;;;;;;;;5067273;28;20040;-63
2022/04/07 00:58:08;;;;;;;7.75;1.15;;;;;;;;;;5067679;28;20665;-61
2022/04/07 01:00:37;;;;;;;3.05;0.50;;;;;;;;;;5069335;28;20044;-62
2022/04/07 01:03:03;;;;;;;8.27;1.23;;;;;;;;;;5067126;28;20051;-63
2022/04/07 01:05:33;;;;;;;7.50;1.02;;;;;;;;;;5068210;28;20036;-62
2022/04/07 01:07:59;;;;;;;7.50;0.90;;;;;;;;;;5067509;28;20040;-64
2022/04/07 01:10:26;;;;;;;8.57;1.13;;;;;;;;;;5049194;28;20072;-62
2022/04/07 01:12:52;;;;;;;10.95;1.40;;;;;;;;;;5068373;28;20040;-62
2022/04/07 01:15:24;;;;;;;8.52;0.90;;;;;;;;;;5066984;28;20047;-62
2022/04/07 01:17:50;;;;;;;9.27;1.30;;;;;;;;;;5066840;28;20073;-63
2022/04/07 01:20:16;;;;;;;10.45;1.55;;;;;;;;;;5066776;28;20040;-63
2022/04/07 01:22:44;;;;;;;6.63;0.88;;;;;;;;;;5068089;28;20429;-63
2022/04/07 01:25:10;;;;;;;7.85;1.00;;;;;;;;;;5066626;28;20043;-63
2022/04/07 01:27:36;;;;;;;9.18;0.95;;;;;;;;;;5064091;28;20041;-62
2022/04/07 01:30:10;;;;;;;10.98;1.42;;;;;;;;;;5066485;28;20085;-63
2022/04/07 01:32:57;;;;;;;8.48;1.00;;;;;;;;;;5082226;28;20037;-63
2022/04/07 01:35:23;;;;;;;10.90;1.10;;;;;;;;;;5079188;28;20123;-62
2022/04/07 01:37:49;;;;;;;7.50;1.02;;;;;;;;;;5066048;28;20109;-62
2022/04/07 01:40:21;;;;;;;10.57;1.15;;;;;;;;;;5066562;28;20051;-63
2022/04/07 01:42:49;;;;;;;11.93;1.50;;;;;;;;;;5065875;28;20037;-64
2022/04/07 01:45:15;;;;;;;12.30;1.98;;;;;;;;;;5067765;28;20040;-63
2022/04/07 01:47:43;;;;;;;10.73;1.55;;;;;;;;;;5065772;28;20502;-63
2022/04/07 01:50:10;;;;;;;9.05;1.60;;;;;;;;;;5066136;28;20036;-63
2022/04/07 01:52:36;;;;;;;15.43;3.10;;;;;;;;;;5065975;28;20024;-64
2022/04/07 01:55:03;;;;;;;14.73;2.58;;;;;;;;;;5066597;28;20461;-63
2022/04/07 01:57:30;;;;;;;11.70;1.65;;;;;;;;;;5067409;28;20551;-63
2022/04/07 01:59:56;;;;;;;12.45;1.90;;;;;;;;;;5066216;28;20706;-64
2022/04/07 02:02:22;;;;;;;6.43;0.90;;;;;;;;;;5064224;28;20033;-64
2022/04/07 02:05:11;;;;;;;10.23;1.20;;;;;;;;;;5050034;28;20060;-63
2022/04/07 02:07:39;;;;;;;10.75;1.20;;;;;;;;;;5045586;28;20036;-63
2022/04/07 02:10:05;;;;;;;11.30;2.10;;;;;;;;;;5063521;28;20075;-64
2022/04/07 02:12:33;;;;;;;12.32;2.05;;;;;;;;;;5066284;28;20121;-63
2022/04/07 02:15:02;;;;;;;16.83;3.08;;;;;;;;;;5043779;28;20067;-62
2022/04/07 02:17:28;;;;;;;12.85;1.98;;;;;;;;;;5066513;28;20076;-64
2022/04/07 02:19:55;;;;;;;12.85;2.38;;;;;;;;;;5064356;28;20032;-62
2022/04/07 02:22:22;;;;;;;17.27;3.10;;;;;;;;;;5065902;28;20045;-63
2022/04/07 02:24:48;;;;;;;9.88;2.28;;;;;;;;;;5066205;28;20070;-63
2022/04/07 02:27:15;;;;;;;11.77;2.20;;;;;;;;;;5064975;28;20094;-64
2022/04/07 02:29:42;;;;;;;16.10;2.47;;;;;;;;;;5065209;28;20044;-64
2022/04/07 02:32:08;;;;;;;12.93;1.92;;;;;;;;;;5049095;28;20098;-62
2022/04/07 02:34:34;;;;;;;12.82;2.75;;;;;;;;;;5064820;28;20051;-63
2022/04/07 02:37:01;;;;;;;16.83;2.28;;;;;;;;;;5065534;28;20470;-63
2022/04/07 02:39:27;;;;;;;17.73;2.47;;;;;;;;;;5045514;28;20143;-63
2022/04/07 02:41:53;;;;;;;14.15;2.90;;;;;;;;;;5064896;28;20048;-64
2022/04/07 02:44:20;;;;;;;17.58;2.92;;;;;;;;;;5066711;28;20047;-63
2022/04/07 02:46:46;;;;;;;17.17;2.45;;;;;;;;;;5064796;28;20068;-62
2022/04/07 02:49:12;;;;;;;19.90;3.13;;;;;;;;;;5064963;28;20040;-62
2022/04/07 02:51:38;;;;;;;18.00;2.95;;;;;;;;;;5067555;28;20028;-61
2022/04/07 02:54:04;;;;;;;18.00;2.92;;;;;;;;;;5067902;28;20036;-61
2022/04/07 02:56:30;;;;;;;21.15;2.33;;;;;;;;;;5066945;28;20032;-61
2022/04/07 02:58:57;;;;;;;21.38;3.05;;;;;;;;;;5066131;28;20052;-61
2022/04/07 03:01:23;;;;;;;20.40;2.85;;;;;;;;;;5068361;28;20059;-62
2022/04/07 03:03:49;;;;;;;18.60;2.63;;;;;;;;;;5066412;28;20036;-62
2022/04/07 03:06:16;;;;;;;20.92;3.58;;;;;;;;;;5063593;28;20043;-61
2022/04/07 03:08:43;;;;;;;17.95;2.58;;;;;;;;;;5066812;28;20036;-62
2022/04/07 03:11:09;;;;;;;22.02;3.10;;;;;;;;;;5067709;28;20102;-61
2022/04/07 03:13:38;;;;;;;28.88;3.58;;;;;;;;;;5067575;28;20366;-61
2022/04/07 03:16:05;;;;;;;22.13;4.38;;;;;;;;;;5066376;28;20219;-61
2022/04/07 03:18:32;;;;;;;18.65;3.30;;;;;;;;;;5058655;28;20036;-61
2022/04/07 03:20:58;;;;;;;19.48;3.67;;;;;;;;;;5067078;28;20393;-62
2022/04/07 03:23:24;;;;;;;11.18;2.97;;;;;;;;;;5066376;28;20039;-61
2022/04/07 03:25:50;;;;;;;20.95;4.43;;;;;;;;;;5066080;28;20056;-61
2022/04/07 03:28:16;;;;;;;18.33;3.65;;;;;;;;;;5065927;28;20537;-62
2022/04/07 03:30:42;;;;;;;18.02;4.30;;;;;;;;;;5081566;28;20039;-62
2022/04/07 03:33:08;;;;;;;15.45;4.18;;;;;;;;;;5065006;28;20039;-62
2022/04/07 03:35:36;;;;;;;13.43;3.42;;;;;;;;;;5065844;28;20493;-61
2022/04/07 03:38:03;;;;;;;19.38;4.03;;;;;;;;;;5066560;28;20047;-63
2022/04/07 03:40:29;;;;;;;17.92;4.30;;;;;;;;;;5062527;28;20037;-63
2022/04/07 03:42:55;;;;;;;12.93;2.83;;;;;;;;;;5044341;28;20222;-63
2022/04/07 03:45:21;;;;;;;14.15;3.15;;;;;;;;;;5065036;28;20052;-64
2022/04/07 03:47:47;;;;;;;18.27;3.42;;;;;;;;;;5064597;28;20097;-62
2022/04/07 03:50:16;;;;;;;13.55;3.30;;;;;;;;;;5049062;28;20116;-61
2022/04/07 03:52:42;;;;;;;16.23;3.13;;;;;;;;;;5066269;28;20032;-62
2022/04/07 03:55:08;;;;;;;14.38;2.90;;;;;;;;;;5069781;28;20040;-62
2022/04/07 03:57:34;;;;;;;20.00;3.17;;;;;;;;;;5071157;28;20040;-61
2022/04/07 04:00:00;;;;;;;14.70;2.50;;;;;;;;;;5068812;28;20102;-61
2022/04/07 04:02:26;;;;;;;12.05;2.53;;;;;;;;;;5070375;28;20051;-61
2022/04/07 04:04:52;;;;;;;8.20;1.20;;;;;;;;;;5053046;28;20458;-61
2022/04/07 04:07:19;;;;;;;10.30;1.70;;;;;;;;;;5070134;28;20063;-62
2022/04/07 04:09:45;;;;;;;12.18;2.10;;;;;;;;;;5068390;28;20086;-61
2022/04/07 04:12:11;;;;;;;12.05;2.42;;;;;;;;;;5069792;28;20399;-62
2022/04/07 04:14:37;;;;;;;14.25;2.53;;;;;;;;;;5068711;28;20075;-64
2022/04/07 04:17:04;;;;;;;17.00;2.50;;;;;;;;;;5084691;28;20045;-64
2022/04/07 04:19:30;;;;;;;16.05;2.92;;;;;;;;;;5049388;28;20032;-64
2022/04/07 04:21:56;;;;;;;16.98;2.85;;;;;;;;;;5068722;28;20051;-63
2022/04/07 04:24:22;;;;;;;15.40;2.28;;;;;;;;;;5068000;28;20041;-63
2022/04/07 04:26:48;;;;;;;17.77;2.75;;;;;;;;;;5068576;28;20040;-62
2022/04/07 04:29:14;;;;;;;18.23;3.08;;;;;;;;;;5051265;28;20055;-63
2022/04/07 04:31:40;;;;;;;13.80;1.95;;;;;;;;;;5067981;28;20060;-64
2022/04/07 04:34:06;;;;;;;18.58;3.17;;;;;;;;;;5069194;28;20076;-63
2022/04/07 04:36:34;;;;;;;17.30;2.70;;;;;;;;;;5068258;28;20494;-63
2022/04/07 04:39:00;;;;;;;21.88;2.75;;;;;;;;;;5069393;28;20049;-63
2022/04/07 04:41:26;;;;;;;19.75;3.67;;;;;;;;;;5067965;28;20051;-64
2022/04/07 04:43:54;;;;;;;17.95;2.92;;;;;;;;;;5067759;28;20041;-62
2022/04/07 04:46:20;;;;;;;18.70;2.88;;;;;;;;;;5050936;28;20475;-63
2022/04/07 04:48:46;;;;;;;15.35;2.45;;;;;;;;;;5067416;28;20052;-64
2022/04/07 04:51:12;;;;;;;16.30;2.50;;;;;;;;;;5050738;28;20056;-62
2022/04/07 04:53:38;;;;;;;17.02;2.70;;;;;;;;;;5066551;28;20066;-63
2022/04/07 04:56:05;;;;;;;11.60;1.95;;;;;;;;;;5050125;28;20033;-63
2022/04/07 04:58:31;;;;;;;16.60;2.58;;;;;;;;;;5067965;28;20040;-63
2022/04/07 05:00:57;;;;;;;16.92;2.22;;;;;;;;;;5067321;28;20049;-64
2022/04/07 05:03:23;;;;;;;16.75;1.75;;;;;;;;;;5067238;28;20082;-63
2022/04/07 05:05:49;;;;;;;17.05;2.40;;;;;;;;;;5066925;28;20036;-64
2022/04/07 05:08:15;;;;;;;20.13;3.00;;;;;;;;;;5066775;28;20048;-62
2022/04/07 05:10:41;;;;;;;13.07;2.20;;;;;;;;;;5067344;28;21211;-63
2022/04/07 05:13:08;;;;;;;20.75;2.60;;;;;;;;;;5068514;28;20036;-63
2022/04/07 05:15:36;;;;;;;17.60;2.50;;;;;;;;;;5067180;28;20028;-62
2022/04/07 05:18:02;;;;;;;18.15;2.67;;;;;;;;;;5067594;28;20089;-62
2022/04/07 05:20:28;;;;;;;15.50;2.50;;;;;;;;;;5067419;28;20548;-63
2022/04/07 05:22:54;;;;;;;23.55;2.67;;;;;;;;;;5033026;28;20505;-63
2022/04/07 05:25:20;;;;;;;15.35;2.40;;;;;;;;;;5067393;28;20044;-63
2022/04/07 05:27:46;;;;;;;25.73;3.55;;;;;;;;;;5066334;28;20124;-63
2022/04/07 05:30:15;;;;;;;19.92;2.78;;;;;;;;;;5067720;28;20130;-63
2022/04/07 05:32:41;;;;;;;19.90;3.00;;;;;;;;;;5075330;28;20086;-63
2022/04/07 05:35:09;;;;;;;22.25;3.95;;;;;;;;;;5066588;28;20143;-62
2022/04/07 05:37:35;;;;;;;23.00;3.75;;;;;;;;;;5067594;28;20067;-64
2022/04/07 05:40:01;;;;;;;13.35;1.70;;;;;;;;;;5049832;28;20045;-63
2022/04/07 05:42:27;;;;;;;11.18;1.52;;;;;;;;;;5067673;28;20044;-64
2022/04/07 05:44:53;;;;;;;8.45;1.00;;;;;;;;;;5051077;28;20047;-63
2022/04/07 05:47:19;;;;;;;9.25;0.85;;;;;;;;;;5066674;28;20044;-63
2022/04/07 05:49:45;;;;;;;8.35;0.80;;;;;;;;;;5066411;28;20075;-65
2022/04/07 05:52:11;;;;;;;5.57;0.60;;;;;;;;;;5067199;28;20517;-63
2022/04/07 05:54:38;;;;;;;7.30;0.60;;;;;;;;;;5066024;28;20120;-63
2022/04/07 05:57:04;;;;;;;4.93;0.38;;;;;;;;;;5047397;28;20208;-64
2022/04/07 05:59:30;;;;;;;3.03;0.35;;;;;;;;;;5066540;28;20048;-63
2022/04/07 06:01:56;;;;;;;5.25;0.40;;;;;;;;;;5049952;28;20040;-63
2022/04/07 06:04:22;;;;;;;4.47;0.40;;;;;;;;;;5063938;28;20041;-62
2022/04/07 06:06:48;;;;;;;6.00;0.43;;;;;;;;;;5066389;28;20505;-63
2022/04/07 06:09:14;;;;;;;4.82;0.50;;;;;;;;;;5067843;28;20486;-63
2022/04/07 06:11:40;;;;;;;6.35;0.63;;;;;;;;;;5064128;28;20044;-63
2022/04/07 06:14:07;;;;;;;6.70;0.60;;;;;;;;;;5066125;28;20048;-64
2022/04/07 06:16:34;;;;;;;12.82;0.88;;;;;;;;;;5066953;28;20044;-63
2022/04/07 06:19:00;;;;;;;10.40;1.83;;;;;;;;;;5065134;28;20067;-63
2022/04/07 06:21:29;;;;;;;7.15;0.70;;;;;;;;;;5065710;28;20106;-64
2022/04/07 06:23:56;;;;;;;8.60;0.65;;;;;;;;;;5063852;28;20051;-63
2022/04/07 06:26:22;;;;;;;7.78;0.70;;;;;;;;;;5067190;28;20039;-62
2022/04/07 06:28:48;;;;;;;7.43;0.73;;;;;;;;;;5066167;28;20044;-62
2022/04/07 06:31:14;;;;;;;6.70;0.40;;;;;;;;;;5065916;28;20127;-64
2022/04/07 06:33:40;;;;;;;8.30;1.02;;;;;;;;;;5054511;28;20044;-64
2022/04/07 06:36:06;;;;;;;2.30;0.30;;;;;;;;;;5066153;28;20096;-63
2022/04/07 06:38:33;;;;;;;6.47;0.30;;;;;;;;;;5066278;28;20066;-60
2022/04/07 06:40:59;;;;;;;3.78;0.30;;;;;;;;;;5067603;28;20340;-61
2022/04/07 06:43:25;;;;;;;5.45;0.40;;;;;;;;;;5067156;28;20040;-61
2022/04/07 06:45:51;;;;;;;7.00;0.60;;;;;;;;;;5066395;28;20083;-61
2022/04/07 06:48:17;;;;;;;4.88;0.65;;;;;;;;;;5049966;28;20040;-61
2022/04/07 06:50:44;;;;;;;6.60;0.40;;;;;;;;;;5066832;28;20041;-62
2022/04/07 06:53:11;;;;;;;3.92;0.40;;;;;;;;;;5068608;28;20045;-61
2022/04/07 06:55:38;;;;;;;3.60;0.30;;;;;;;;;;5050399;28;20037;-61
2022/04/07 06:58:06;;;;;;;4.55;0.40;;;;;;;;;;5065674;28;20133;-63
2022/04/07 07:00:36;;;;;;;6.13;0.50;;;;;;;;;;5064641;28;20075;-62
2022/04/07 07:03:04;;;;;;;3.95;0.60;;;;;;;;;;5065239;28;20406;-61
2022/04/07 07:05:31;;;;;;;4.68;0.60;;;;;;;;;;5066729;28;20453;-62
2022/04/07 07:07:57;;;;;;;4.18;0.30;;;;;;;;;;5064277;28;20375;-61
2022/04/07 07:10:23;;;;;;;5.38;0.80;;;;;;;;;;5063988;28;20047;-61
2022/04/07 07:12:50;;;;;;;5.80;0.40;;;;;;;;;;5066824;28;20128;-61
2022/04/07 07:15:16;;;;;;;3.35;0.40;;;;;;;;;;5067044;28;20114;-62
2022/04/07 07:17:42;;;;;;;3.75;0.20;;;;;;;;;;5063864;28;20409;-63
2022/04/07 07:20:12;;;;;;;1.63;0.20;;;;;;;;;;5067055;28;20083;-61
2022/04/07 07:22:38;;;;;;;7.38;0.47;;;;;;;;;;5065840;28;20044;-61
2022/04/07 07:25:05;;;;;;;2.88;0.20;;;;;;;;;;5064991;28;20114;-61
2022/04/07 07:27:44;;;;;;;3.55;0.30;;;;;;;;;;5064127;28;20769;-61
2022/04/07 07:30:11;;;;;;;3.92;0.35;;;;;;;;;;5068785;28;20533;-62
2022/04/07 07:32:37;;;;;;;4.03;0.22;;;;;;;;;;5064626;28;20119;-61
2022/04/07 07:35:04;;;;;;;4.22;0.50;;;;;;;;;;5069350;28;20040;-61
2022/04/07 07:37:30;;;;;;;5.35;0.43;;;;;;;;;;5068466;28;20387;-61
2022/04/07 07:39:57;;;;;;;3.30;0.22;;;;;;;;;;5069017;28;20078;-61
2022/04/07 07:42:24;;;;;;;5.15;0.50;;;;;;;;;;5052060;28;20057;-61
2022/04/07 07:44:50;;;;;;;3.35;0.20;;;;;;;;;;5071336;28;20437;-61
2022/04/07 07:47:16;;;;;;;3.72;0.20;;;;;;;;;;5069083;28;20074;-61
2022/04/07 07:49:42;;;;;;;2.22;0.30;;;;;;;;;;5070100;28;20038;-61
2022/04/07 07:52:09;;;;;;;4.45;0.30;;;;;;;;;;5070740;28;20047;-61
2022/04/07 07:54:35;;;;;;;3.63;0.30;;;;;;;;;;5068626;28;20486;-62
2022/04/07 07:57:01;;;;;;;1.85;0.30;;;;;;;;;;5069753;28;20046;-64
2022/04/07 07:59:27;;;;;;;4.05;0.30;;;;;;;;;;5051710;28;20048;-62
2022/04/07 08:01:53;;;;;;;4.00;0.25;;;;;;;;;;5069734;28;20502;-61
2022/04/07 08:04:19;;;;;;;2.58;0.30;;;;;;;;;;5068372;28;20098;-61
2022/04/07 08:06:46;;;;;;;3.55;0.20;;;;;;;;;;5067685;28;20322;-61
2022/04/07 08:09:14;;;;;;;4.95;0.30;;;;;;;;;;5068729;28;20048;-62
2022/04/07 08:11:43;;;;;;;3.38;0.30;;;;;;;;;;5088891;28;20032;-61
2022/04/07 08:14:09;;;;;;;2.20;0.38;;;;;;;;;;5070658;28;20044;-61
2022/04/07 08:16:36;;;;;;;1.98;0.20;;;;;;;;;;5072287;28;20724;-61
2022/04/07 08:19:02;;;;;;;1.88;0.20;;;;;;;;;;5069993;28;20036;-61
2022/04/07 08:21:28;;;;;;;1.73;0.10;;;;;;;;;;5070242;28;20052;-62
2022/04/07 08:23:54;;;;;;;4.50;0.30;;;;;;;;;;5072046;28;20075;-61
2022/04/07 08:26:20;;;;;;;1.42;0.20;;;;;;;;;;5086692;28;20490;-62
2022/04/07 08:28:46;;;;;;;3.30;0.40;;;;;;;;;;5072061;28;20036;-60
2022/04/07 08:31:13;;;;;;;4.15;0.50;;;;;;;;;;5070512;28;20037;-60
2022/04/07 08:33:39;;;;;;;5.53;0.20;;;;;;;;;;5072728;28;20036;-61
2022/04/07 08:36:05;;;;;;;1.88;0.30;;;;;;;;;;5072035;28;20067;-61
2022/04/07 08:38:31;;;;;;;4.63;0.30;;;;;;;;;;5070048;28;20036;-60
2022/04/07 08:41:00;;;;;;;3.25;0.30;;;;;;;;;;5071877;28;20044;-61
2022/04/07 08:43:27;;;;;;;7.70;0.57;;;;;;;;;;5069294;28;20054;-61
2022/04/07 08:45:53;;;;;;;5.68;0.30;;;;;;;;;;5053679;28;20059;-61
2022/04/07 08:48:19;;;;;;;5.90;0.20;;;;;;;;;;5071433;28;20036;-61
2022/04/07 08:50:45;;;;;;;5.45;0.45;;;;;;;;;;5070851;28;20056;-61
2022/04/07 08:53:12;;;;;;;4.28;0.45;;;;;;;;;;5068721;28;20494;-61
2022/04/07 08:55:38;;;;;;;4.40;0.40;;;;;;;;;;5068921;28;20098;-61
2022/04/07 08:58:05;;;;;;;5.63;0.50;;;;;;;;;;5067512;28;20040;-61
2022/04/07 09:00:31;;;;;;;6.32;0.50;;;;;;;;;;5069330;28;20068;-64
2022/04/07 09:02:58;;;;;;;3.35;0.50;;;;;;;;;;5067592;28;20063;-61
2022/04/07 09:05:26;;;;;;;4.15;0.35;;;;;;;;;;5083132;28;20051;-61
2022/04/07 09:07:57;;;;;;;5.55;0.38;;;;;;;;;;5067908;28;20051;-61
2022/04/07 09:10:24;;;;;;;4.45;0.47;;;;;;;;;;5068689;28;20048;-63
2022/04/07 09:12:53;;;;;;;5.05;0.40;;;;;;;;;;5066397;28;20083;-62
2022/04/07 09:15:20;;;;;;;4.47;0.50;;;;;;;;;;5066392;28;20053;-61
2022/04/07 09:17:49;;;;;;;4.03;0.38;;;;;;;;;;5065868;28;20479;-61
2022/04/07 09:20:15;;;;;;;5.43;0.50;;;;;;;;;;5068017;28;20036;-61
2022/04/07 09:22:42;;;;;;;5.72;0.50;;;;;;;;;;5068079;28;20032;-61
2022/04/07 09:25:11;;;;;;;2.83;0.40;;;;;;;;;;5068835;28;20564;-61
2022/04/07 09:27:41;;;;;;;6.55;0.63;;;;;;;;;;5068289;28;20127;-62
2022/04/07 09:30:08;;;;;;;6.60;0.57;;;;;;;;;;5068123;28;20046;-61
2022/04/07 09:32:41;;;;;;;6.07;0.60;;;;;;;;;;5049223;28;20071;-61
2022/04/07 09:35:08;;;;;;;4.73;0.50;;;;;;;;;;5066564;28;20037;-61
2022/04/07 09:37:34;;;;;;;6.15;0.70;;;;;;;;;;5068074;28;20051;-62
2022/04/07 09:40:05;;;;;;;5.47;0.40;;;;;;;;;;5067391;28;20048;-63
2022/04/07 09:42:33;;;;;;;7.82;0.50;;;;;;;;;;5066165;28;20059;-62
2022/04/07 09:45:00;;;;;;;4.85;0.57;;;;;;;;;;5067592;28;20044;-61
2022/04/07 09:47:38;;;;;;;5.28;0.82;;;;;;;;;;5066496;28;20052;-61
2022/04/07 09:50:06;;;;;;;7.40;0.60;;;;;;;;;;5067472;28;20111;-62
2022/04/07 09:52:32;;;;;;;5.40;0.68;;;;;;;;;;5065714;28;20043;-62
2022/04/07 09:55:06;;;;;;;7.50;0.73;;;;;;;;;;5066720;28;20100;-62
2022/04/07 09:57:33;;;;;;;6.65;0.75;;;;;;;;;;5068139;28;20075;-62
2022/04/07 10:00:02;;;;;;;6.97;0.77;;;;;;;;;;5066980;28;20048;-61
2022/04/07 10:02:29;;;;;;;6.72;0.68;;;;;;;;;;5067145;28;20301;-61
2022/04/07 10:04:56;;;;;;;5.05;0.70;;;;;;;;;;5068492;28;20048;-61
2022/04/07 10:07:23;;;;;;;8.02;0.93;;;;;;;;;;5065347;28;20059;-62
2022/04/07 10:09:50;;;;;;;7.50;0.38;;;;;;;;;;5065338;28;20061;-63
2022/04/07 10:12:17;;;;;;;5.85;0.40;;;;;;;;;;5067712;28;20131;-62
2022/04/07 10:14:54;;;;;;;5.85;0.70;;;;;;;;;;5127480;27;20108;-61
2022/04/07 10:17:20;;;;;;;11.85;1.10;;;;;;;;;;5124319;28;20047;-62
2022/04/07 10:19:49;;;;;;;7.10;0.80;;;;;;;;;;5115712;28;20126;-63
2022/04/07 10:22:34;;;;;;;9.95;0.63;;;;;;;;;;5111103;28;20123;-63
2022/04/07 10:25:03;;;;;;;8.25;0.73;;;;;;;;;;5142092;27;20310;-62
2022/04/07 10:27:29;;;;;;;5.15;0.52;;;;;;;;;;5111709;27;20031;-64
2022/04/07 10:30:03;;;;;;;6.13;0.60;;;;;;;;;;5118948;28;20052;-64
2022/04/07 10:32:36;;;;;;;9.13;0.90;;;;;;;;;;5118744;27;20120;-64
2022/04/07 10:35:03;;;;;;;6.63;0.80;;;;;;;;;;5134454;27;20031;-63
2022/04/07 10:37:30;;;;;;;4.25;0.45;;;;;;;;;;5125464;28;20039;-63
2022/04/07 10:40:21;;;;;;;7.40;0.77;;;;;;;;;;5122165;27;20181;-63
2022/04/07 10:43:06;;;;;;;8.90;0.95;;;;;;;;;;5117970;27;20067;-64
2022/04/07 10:45:33;;;;;;;8.27;0.85;;;;;;;;;;5140972;27;20094;-64
2022/04/07 10:48:18;;;;;;;9.00;0.73;;;;;;;;;;5104257;27;20047;-64
2022/04/07 10:50:52;;;;;;;5.25;0.40;;;;;;;;;;5107934;28;20161;-63
2022/04/07 10:53:28;;;;;;;4.53;0.40;;;;;;;;;;5135500;27;20051;-62
2022/04/07 10:55:55;;;;;;;9.32;0.80;;;;;;;;;;5144532;27;20132;-64
2022/04/07 10:58:24;;;;;;;2.85;0.30;;;;;;;;;;5103883;28;20042;-63
2022/04/07 11:00:50;;;;;;;5.10;0.57;;;;;;;;;;5142648;27;20047;-64
2022/04/07 11:03:18;;;;;;;7.25;0.70;;;;;;;;;;5103292;28;20043;-64
2022/04/07 11:05:54;;;;;;;9.40;1.00;;;;;;;;;;5110629;28;20100;-64
2022/04/07 11:08:23;;;;;;;11.07;1.45;;;;;;;;;;5118422;28;20063;-63
2022/04/07 11:10:50;;;;;;;12.80;1.42;;;;;;;;;;5108575;28;20428;-63
2022/04/07 11:13:17;;;;;;;10.77;1.20;;;;;;;;;;5108719;28;20062;-63
2022/04/07 11:15:47;;;;;;;13.25;1.20;;;;;;;;;;5092635;28;20119;-62
2022/04/07 11:18:26;;;;;;;10.35;1.42;;;;;;;;;;5111331;28;20036;-64
2022/04/07 11:21:02;;;;;;;12.77;1.55;;;;;;;;;;5114939;27;20047;-61
2022/04/07 11:24:00;;;;;;;10.88;1.33;;;;;;;;;;5115516;28;20042;-62
2022/04/07 11:26:27;;;;;;;10.05;0.82;;;;;;;;;;5066737;27;20517;-62
2022/04/07 11:28:58;;;;;;;10.38;1.20;;;;;;;;;;5111231;28;20695;-63
2022/04/07 11:31:39;;;;;;;8.77;0.88;;;;;;;;;;5107335;28;20432;-63
2022/04/07 11:34:25;;;;;;;9.95;1.08;;;;;;;;;;5109537;28;20490;-63
2022/04/07 11:36:52;;;;;;;6.70;0.82;;;;;;;;;;5110626;28;20031;-63
2022/04/07 11:39:19;;;;;;;9.85;1.42;;;;;;;;;;5110897;28;20036;-62
2022/04/07 11:41:45;;;;;;;6.00;0.77;;;;;;;;;;5098569;28;20044;-62
2022/04/07 11:44:12;;;;;;;13.32;1.63;;;;;;;;;;5090329;28;20051;-63
2022/04/07 11:46:40;;;;;;;10.45;1.20;;;;;;;;;;5097011;28;20055;-61
2022/04/07 11:49:08;;;;;;;10.80;1.13;;;;;;;;;;5126590;27;20062;-62
2022/04/07 11:51:35;;;;;;;12.23;1.58;;;;;;;;;;5101275;28;20036;-61
2022/04/07 11:54:02;;;;;;;11.18;1.50;;;;;;;;;;5085934;28;20028;-62
2022/04/07 11:56:31;;;;;;;12.70;1.42;;;;;;;;;;5092320;28;20050;-62
2022/04/07 11:59:02;;;;;;;11.25;1.10;;;;;;;;;;5093314;28;20032;-61
2022/04/07 12:01:29;;;;;;;11.43;1.73;;;;;;;;;;5104822;28;20069;-61
2022/04/07 12:03:56;;;;;;;10.70;1.63;;;;;;;;;;5091923;28;20144;-61
2022/04/07 12:06:25;;;;;;;13.18;1.33;;;;;;;;;;5106897;28;20133;-62
2022/04/07 12:08:52;;;;;;;9.93;1.50;;;;;;;;;;5091653;28;20043;-63
2022/04/07 12:11:22;;;;;;;10.02;1.67;;;;;;;;;;5093168;28;20035;-60
2022/04/07 12:13:52;;;;;;;8.27;1.17;;;;;;;;;;5092156;28;20052;-62
2022/04/07 12:16:19;;;;;;;4.78;0.95;;;;;;;;;;5079821;28;20123;-61
2022/04/07 12:18:52;;;;;;;7.93;1.05;;;;;;;;;;5091134;28;20055;-61
2022/04/07 12:21:19;;;;;;;9.85;0.93;;;;;;;;;;5100084;28;20051;-62
2022/04/07 12:23:47;;;;;;;10.60;1.48;;;;;;;;;;5100653;28;20050;-61
2022/04/07 12:26:14;;;;;;;8.82;1.08;;;;;;;;;;5090346;28;20123;-62
2022/04/07 12:28:40;;;;;;;10.82;1.27;;;;;;;;;;5092948;28;20054;-62
2022/04/07 12:31:13;;;;;;;8.57;1.08;;;;;;;;;;5102705;28;20117;-61
2022/04/07 12:33:40;;;;;;;10.20;1.35;;;;;;;;;;5107346;28;20057;-62
2022/04/07 12:36:17;;;;;;;5.97;0.73;;;;;;;;;;5106334;28;20067;-62
2022/04/07 12:38:59;;;;;;;8.73;1.15;;;;;;;;;;5109832;28;20035;-61
2022/04/07 12:41:35;;;;;;;6.93;1.15;;;;;;;;;;5108401;28;20181;-64
2022/04/07 12:44:01;;;;;;;7.63;1.05;;;;;;;;;;5103003;28;20066;-64
2022/04/07 12:46:42;;;;;;;6.97;0.85;;;;;;;;;;5093133;28;20039;-62
2022/04/07 12:49:09;;;;;;;8.23;0.55;;;;;;;;;;5089691;28;20512;-63
2022/04/07 12:51:36;;;;;;;9.68;0.82;;;;;;;;;;5093667;28;20047;-63
2022/04/07 12:54:21;;;;;;;6.45;0.43;;;;;;;;;;5094021;28;20089;-63
2022/04/07 12:56:47;;;;;;;7.22;0.70;;;;;;;;;;5090889;28;20042;-63
2022/04/07 12:59:15;;;;;;;5.47;0.50;;;;;;;;;;5090965;28;20051;-62
2022/04/07 13:01:48;;;;;;;5.57;0.40;;;;;;;;;;5097136;28;20036;-63
2022/04/07 13:04:14;;;;;;;2.90;0.65;;;;;;;;;;5079810;28;20043;-62
2022/04/07 13:06:40;;;;;;;7.03;0.82;;;;;;;;;;5101601;28;20039;-62
2022/04/07 13:09:07;;;;;;;9.13;1.00;;;;;;;;;;5089641;28;20070;-63
2022/04/07 13:11:37;;;;;;;12.32;1.38;;;;;;;;;;5094501;28;20044;-62
2022/04/07 13:14:05;;;;;;;10.10;1.17;;;;;;;;;;5094460;28;20058;-61
2022/04/07 13:16:32;;;;;;;10.50;1.52;;;;;;;;;;5094152;28;20525;-63
2022/04/07 13:18:58;;;;;;;7.25;0.80;;;;;;;;;;5090787;28;20036;-63
2022/04/07 13:21:25;;;;;;;8.15;1.08;;;;;;;;;;5107692;28;20085;-61
2022/04/07 13:23:51;;;;;;;8.77;0.60;;;;;;;;;;5109253;28;20048;-62
2022/04/07 13:26:17;;;;;;;5.07;0.55;;;;;;;;;;5107205;28;20043;-62
2022/04/07 13:28:46;;;;;;;3.75;0.50;;;;;;;;;;5091005;28;20047;-62
2022/04/07 13:31:12;;;;;;;2.08;0.10;;;;;;;;;;5105165;28;20520;-63
2022/04/07 13:33:38;;;;;;;1.92;0.20;;;;;;;;;;5105258;28;20457;-62
2022/04/07 13:36:06;;;;;;;2.80;0.13;;;;;;;;;;5081198;28;20555;-63
2022/04/07 13:38:35;;;;;;;1.35;0.10;;;;;;;;;;5103681;28;20039;-63
2022/04/07 13:41:03;;;;;;;0.80;0.20;;;;;;;;;;5102595;28;20043;-63
2022/04/07 13:43:29;;;;;;;2.03;0.20;;;;;;;;;;5079966;28;20596;-63
2022/04/07 13:45:55;;;;;;;1.10;0.35;;;;;;;;;;5082193;28;20079;-63
2022/04/07 13:48:22;;;;;;;1.73;0.20;;;;;;;;;;5090210;28;20044;-63
2022/04/07 13:50:48;;;;;;;3.60;0.20;;;;;;;;;;5086962;28;20036;-64
2022/04/07 13:53:16;;;;;;;2.90;0.40;;;;;;;;;;5093193;28;20040;-64
2022/04/07 13:55:45;;;;;;;5.55;0.57;;;;;;;;;;5090792;28;20040;-63
2022/04/07 13:58:12;;;;;;;3.92;0.70;;;;;;;;;;5070320;28;20043;-64
2022/04/07 14:00:42;;;;;;;8.07;0.80;;;;;;;;;;5094690;28;20040;-64
2022/04/07 14:03:09;;;;;;;7.70;1.00;;;;;;;;;;5087588;28;20040;-63
2022/04/07 14:05:40;;;;;;;7.40;0.85;;;;;;;;;;5071520;28;20060;-63
2022/04/07 14:08:08;;;;;;;5.75;0.82;;;;;;;;;;5095782;28;20148;-63
2022/04/07 14:10:35;;;;;;;7.93;0.52;;;;;;;;;;5095893;28;20188;-62
2022/04/07 14:13:02;;;;;;;5.40;0.65;;;;;;;;;;5071866;28;20047;-63
2022/04/07 14:15:28;;;;;;;4.85;0.63;;;;;;;;;;5091522;28;20044;-62
2022/04/07 14:17:55;;;;;;;4.90;0.40;;;;;;;;;;5077205;28;20051;-61
2022/04/07 14:20:22;;;;;;;4.60;0.50;;;;;;;;;;5093002;28;20043;-63
2022/04/07 14:22:49;;;;;;;3.33;0.50;;;;;;;;;;5097854;28;20047;-61
2022/04/07 14:25:15;;;;;;;10.68;0.93;;;;;;;;;;5094317;28;20054;-63
2022/04/07 14:27:42;;;;;;;5.75;0.40;;;;;;;;;;5093461;28;20044;-62
2022/04/07 14:30:09;;;;;;;14.20;0.90;;;;;;;;;;5098111;28;20054;-63
2022/04/07 14:32:35;;;;;;;2.17;0.45;;;;;;;;;;5104350;28;20515;-61
2022/04/07 14:35:01;;;;;;;6.03;0.52;;;;;;;;;;5104846;28;20044;-62
2022/04/07 14:37:27;;;;;;;8.18;0.40;;;;;;;;;;5107146;28;20073;-61
2022/04/07 14:39:54;;;;;;;4.45;0.40;;;;;;;;;;5083836;28;20133;-62
2022/04/07 14:42:20;;;;;;;7.28;0.57;;;;;;;;;;5104057;28;20050;-62